createdAt,value
2022-12-03T00:00:30.044Z,102310.97
2022-12-03T00:01:01.491Z,102305.72
2022-12-03T00:01:32.939Z,102305.72
2022-12-03T00:02:04.483Z,102297.97
2022-12-03T00:02:36.176Z,102296.19
2022-12-03T00:03:07.849Z,102304.06
2022-12-03T00:03:39.500Z,102305.03
2022-12-03T00:04:11.735Z,102309.31
2022-12-03T00:04:43.197Z,102297.97
2022-12-03T00:05:14.688Z,102298.81
2022-12-03T00:05:49.030Z,102309.31
2022-12-03T00:06:20.954Z,102304.91
2022-12-03T00:06:52.537Z,102297.84
2022-12-03T00:07:24.077Z,102294.53
2022-12-03T00:07:55.654Z,102296.31
2022-12-03T00:08:27.157Z,102299.88
2022-12-03T00:08:58.628Z,102298.81
2022-12-03T00:09:30.213Z,102297.16
2022-12-03T00:10:01.756Z,102297.16
2022-12-03T00:10:33.206Z,102296.31
2022-12-03T00:11:04.813Z,102294.75
2022-12-03T00:11:36.255Z,102297.38
2022-12-03T00:12:07.733Z,102297.38
2022-12-03T00:12:39.205Z,102298.22
2022-12-03T00:13:10.692Z,102300.72
2022-12-03T00:13:42.321Z,102299.06
2022-12-03T00:14:13.886Z,102296.31
2022-12-03T00:14:45.343Z,102294.41
2022-12-03T00:15:16.974Z,102295.47
2022-12-03T00:15:48.570Z,102297.16
2022-12-03T00:16:20.104Z,102295.47
2022-12-03T00:16:51.684Z,102307.63
2022-12-03T00:17:23.138Z,102304.06
2022-12-03T00:17:54.700Z,102298.81
2022-12-03T00:18:26.158Z,102295.22
2022-12-03T00:18:57.775Z,102290.81
2022-12-03T00:19:29.412Z,102290.81
2022-12-03T00:20:00.845Z,102298.56
2022-12-03T00:20:32.348Z,102297.97
2022-12-03T00:21:04.937Z,102298.81
2022-12-03T00:21:36.393Z,102291.91
2022-12-03T00:22:07.833Z,102291.06
2022-12-03T00:22:39.328Z,102295.22
2022-12-03T00:23:10.992Z,102298.56
2022-12-03T00:23:42.667Z,102291.78
2022-12-03T00:24:14.202Z,102299.66
2022-12-03T00:24:45.723Z,102286.66
2022-12-03T00:25:17.610Z,102300.72
2022-12-03T00:25:49.054Z,102299.88
2022-12-03T00:26:20.941Z,102294.63
2022-12-03T00:26:53.235Z,102294.53
2022-12-03T00:27:24.740Z,102296.44
2022-12-03T00:27:56.223Z,102286.88
2022-12-03T00:28:27.704Z,102290.34
2022-12-03T00:28:59.188Z,102291.19
2022-12-03T00:29:30.657Z,102295.47
2022-12-03T00:30:02.109Z,102283.44
2022-12-03T00:30:33.617Z,102294.88
2022-12-03T00:31:05.525Z,102286.88
2022-12-03T00:31:37.107Z,102293.69
2022-12-03T00:32:08.666Z,102292.97
2022-12-03T00:32:40.104Z,102293.69
2022-12-03T00:33:11.598Z,102292.00
2022-12-03T00:33:43.048Z,102292.84
2022-12-03T00:34:14.529Z,102293.81
2022-12-03T00:34:46.105Z,102291.91
2022-12-03T00:35:17.744Z,102287.59
2022-12-03T00:35:49.265Z,102290.09
2022-12-03T00:36:20.760Z,102294.53
2022-12-03T00:36:52.211Z,102293.56
2022-12-03T00:37:23.675Z,102300.47
2022-12-03T00:37:55.966Z,102288.31
2022-12-03T00:38:27.525Z,102295.34
2022-12-03T00:38:59.094Z,102290.94
2022-12-03T00:39:30.605Z,102288.31
2022-12-03T00:40:04.262Z,102292.72
2022-12-03T00:40:35.735Z,102279.50
2022-12-03T00:41:07.396Z,102286.41
2022-12-03T00:41:38.836Z,102276.16
2022-12-03T00:42:10.285Z,102281.63
2022-12-03T00:42:41.925Z,102282.72
2022-12-03T00:43:13.469Z,102279.25
2022-12-03T00:43:44.955Z,102279.13
2022-12-03T00:44:16.758Z,102288.81
2022-12-03T00:44:48.402Z,102280.81
2022-12-03T00:45:19.873Z,102276.50
2022-12-03T00:45:51.409Z,102284.16
2022-12-03T00:46:24.385Z,102279.72
2022-12-03T00:46:55.986Z,102282.47
2022-12-03T00:47:27.504Z,102279.97
2022-12-03T00:47:59.061Z,102282.72
2022-12-03T00:48:30.512Z,102283.78
2022-12-03T00:49:02.889Z,102289.63
2022-12-03T00:49:34.388Z,102284.63
2022-12-03T00:50:06.652Z,102278.53
2022-12-03T00:50:38.264Z,102271.63
2022-12-03T00:51:09.733Z,102277.78
2022-12-03T00:51:41.216Z,102286.41
2022-12-03T00:52:12.690Z,102277.72
2022-12-03T00:52:44.259Z,102279.59
2022-12-03T00:53:15.745Z,102288.28
2022-12-03T00:53:47.221Z,102278.53
2022-12-03T00:54:18.656Z,102285.47
2022-12-03T00:54:50.385Z,102279.13
2022-12-03T00:55:22.198Z,102284.38
2022-12-03T00:55:53.631Z,102287.84
2022-12-03T00:56:25.136Z,102286.06
2022-12-03T00:56:56.658Z,102289.63
2022-12-03T00:57:28.161Z,102289.75
2022-12-03T00:57:59.665Z,102281.88
2022-12-03T00:58:31.105Z,102287.25
2022-12-03T00:59:02.550Z,102284.63
2022-12-03T00:59:34.045Z,102287.13
2022-12-03T01:00:06.404Z,102282.00
2022-12-03T01:00:38.053Z,102284.38
2022-12-03T01:01:09.531Z,102286.06
2022-12-03T01:01:41.098Z,102282.47
2022-12-03T01:02:12.655Z,102284.16
2022-12-03T01:02:44.178Z,102279.72
2022-12-03T01:03:15.655Z,102287.72
2022-12-03T01:03:47.114Z,102286.19
2022-12-03T01:04:18.718Z,102279.97
2022-12-03T01:04:50.503Z,102281.88
2022-12-03T01:05:22.250Z,102286.28
2022-12-03T01:05:53.777Z,102280.22
2022-12-03T01:06:25.230Z,102281.03
2022-12-03T01:06:56.716Z,102282.72
2022-12-03T01:07:28.208Z,102287.72
2022-12-03T01:07:59.826Z,102284.50
2022-12-03T01:08:31.346Z,102279.38
2022-12-03T01:09:03.066Z,102283.66
2022-12-03T01:09:34.765Z,102277.59
2022-12-03T01:10:07.017Z,102278.31
2022-12-03T01:10:38.534Z,102284.16
2022-12-03T01:11:30.082Z,102278.06
2022-12-03T01:12:01.577Z,102276.38
2022-12-03T01:12:33.022Z,102279.00
2022-12-03T01:13:04.475Z,102279.00
2022-12-03T01:13:35.942Z,102273.53
2022-12-03T01:14:10.374Z,102276.16
2022-12-03T01:14:41.812Z,102276.16
2022-12-03T01:15:13.315Z,102282.22
2022-12-03T01:15:44.807Z,102284.16
2022-12-03T01:16:16.352Z,102283.19
2022-12-03T01:16:48.395Z,102283.31
2022-12-03T01:17:20.116Z,102279.13
2022-12-03T01:17:51.633Z,102281.75
2022-12-03T01:18:23.146Z,102286.88
2022-12-03T01:18:54.746Z,102283.31
2022-12-03T01:19:26.220Z,102280.69
2022-12-03T01:19:59.090Z,102280.69
2022-12-03T01:20:30.577Z,102283.31
2022-12-03T01:21:02.028Z,102289.41
2022-12-03T01:21:33.876Z,102279.72
2022-12-03T01:22:05.324Z,102285.81
2022-12-03T01:22:36.874Z,102283.06
2022-12-03T01:23:08.412Z,102280.44
2022-12-03T01:23:39.867Z,102286.53
2022-12-03T01:24:11.467Z,102282.00
2022-12-03T01:24:43.812Z,102282.13
2022-12-03T01:25:15.453Z,102276.03
2022-12-03T01:25:46.927Z,102279.50
2022-12-03T01:26:18.389Z,102283.06
2022-12-03T01:26:49.917Z,102271.72
2022-12-03T01:27:21.368Z,102279.59
2022-12-03T01:27:53.099Z,102275.44
2022-12-03T01:28:24.613Z,102280.56
2022-12-03T01:28:56.097Z,102282.22
2022-12-03T01:29:27.676Z,102283.06
2022-12-03T01:29:59.092Z,102280.44
2022-12-03T01:30:50.602Z,102279.38
2022-12-03T01:31:42.406Z,102279.50
2022-12-03T01:32:16.727Z,102279.50
2022-12-03T01:32:48.185Z,102283.06
2022-12-03T01:33:19.670Z,102275.19
2022-12-03T01:33:51.112Z,102285.56
2022-12-03T01:34:22.564Z,102275.06
2022-12-03T01:34:55.739Z,102282.81
2022-12-03T01:35:27.531Z,102279.50
2022-12-03T01:35:58.978Z,102282.13
2022-12-03T01:36:30.517Z,102282.13
2022-12-03T01:37:02.121Z,102274.34
2022-12-03T01:37:33.774Z,102279.72
2022-12-03T01:38:05.234Z,102279.72
2022-12-03T01:38:36.702Z,102279.72
2022-12-03T01:39:08.317Z,102272.81
2022-12-03T01:39:40.283Z,102276.16
2022-12-03T01:40:13.793Z,102275.19
2022-12-03T01:40:45.252Z,102274.25
2022-12-03T01:41:17.840Z,102275.06
2022-12-03T01:41:50.519Z,102278.53
2022-12-03T01:42:28.132Z,102273.16
2022-12-03T01:42:59.605Z,102274.00
2022-12-03T01:43:31.289Z,102274.00
2022-12-03T01:44:04.592Z,102278.03
2022-12-03T01:44:37.274Z,102270.16
2022-12-03T01:45:21.377Z,102274.34
2022-12-03T01:45:52.914Z,102273.50
2022-12-03T01:46:37.768Z,102272.66
2022-12-03T01:47:14.124Z,102268.50
2022-12-03T01:47:45.605Z,102275.53
2022-12-03T01:48:17.307Z,102277.34
2022-12-03T01:48:50.634Z,102267.91
2022-12-03T01:49:26.441Z,102265.41
2022-12-03T01:50:21.022Z,102266.47
2022-12-03T01:50:52.486Z,102274.25
2022-12-03T01:51:24.013Z,102268.16
2022-12-03T01:51:56.559Z,102267.06
2022-12-03T01:52:31.589Z,102270.66
2022-12-03T01:53:04.503Z,102262.66
2022-12-03T01:53:36.294Z,102267.91
2022-12-03T01:54:16.260Z,102267.06
2022-12-03T01:54:51.455Z,102267.31
2022-12-03T01:55:24.436Z,102266.38
2022-12-03T01:55:55.982Z,102263.75
2022-12-03T01:56:27.860Z,102272.31
2022-12-03T01:56:59.392Z,102260.03
2022-12-03T01:57:40.805Z,102267.31
2022-12-03T01:58:14.320Z,102266.13
2022-12-03T01:58:46.448Z,102269.69
2022-12-03T01:59:19.698Z,102267.78
2022-12-03T01:59:52.884Z,102271.13
2022-12-03T02:00:27.053Z,102264.31
2022-12-03T02:01:02.050Z,102266.84
2022-12-03T02:01:33.598Z,102263.75
2022-12-03T02:02:12.628Z,102262.06
2022-12-03T02:02:45.564Z,102264.56
2022-12-03T02:03:19.685Z,102258.38
2022-12-03T02:03:51.467Z,102264.44
2022-12-03T02:04:23.712Z,102259.91
2022-12-03T02:04:56.342Z,102263.50
2022-12-03T02:05:31.857Z,102261.00
2022-12-03T02:06:03.518Z,102263.50
2022-12-03T02:06:35.040Z,102264.22
2022-12-03T02:07:33.556Z,102258.25
2022-12-03T02:08:29.510Z,102265.16
2022-12-03T02:09:01.063Z,102256.56
2022-12-03T02:09:32.507Z,102261.13
2022-12-03T02:10:04.528Z,102264.44
2022-12-03T02:10:37.671Z,102268.28
2022-12-03T02:11:30.136Z,102262.66
2022-12-03T02:12:01.569Z,102258.00
2022-12-03T02:12:39.994Z,102263.97
2022-12-03T02:13:11.669Z,102264.91
2022-12-03T02:13:43.531Z,102263.00
2022-12-03T02:14:20.325Z,102263.00
2022-12-03T02:14:52.308Z,102260.13
2022-12-03T02:15:24.168Z,102256.56
2022-12-03T02:15:55.694Z,102259.19
2022-12-03T02:16:27.370Z,102255.84
2022-12-03T02:17:00.259Z,102256.34
2022-12-03T02:17:32.021Z,102268.38
2022-12-03T02:18:03.656Z,102260.13
2022-12-03T02:18:35.158Z,102264.69
2022-12-03T02:19:24.904Z,102262.06
2022-12-03T02:19:56.488Z,102252.63
2022-12-03T02:20:28.006Z,102263.00
2022-12-03T02:21:09.806Z,102254.19
2022-12-03T02:22:07.605Z,102261.34
2022-12-03T02:23:07.227Z,102252.63
2022-12-03T02:23:57.863Z,102259.91
2022-12-03T02:24:36.737Z,102260.50
2022-12-03T02:25:23.663Z,102258.72
2022-12-03T02:25:55.183Z,102259.66
2022-12-03T02:26:26.728Z,102257.75
2022-12-03T02:26:58.174Z,102261.22
2022-12-03T02:27:29.779Z,102266.84
2022-12-03T02:28:01.945Z,102252.03
2022-12-03T02:28:33.439Z,102266.59
2022-12-03T02:29:04.965Z,102257.75
2022-12-03T02:29:36.843Z,102266.34
2022-12-03T02:30:09.668Z,102257.75
2022-12-03T02:30:41.143Z,102264.56
2022-12-03T02:31:12.768Z,102250.84
2022-12-03T02:31:44.661Z,102259.66
2022-12-03T02:32:16.142Z,102258.84
2022-12-03T02:32:48.638Z,102262.28
2022-12-03T02:33:20.115Z,102256.91
2022-12-03T02:33:51.608Z,102258.72
2022-12-03T02:34:43.621Z,102261.47
2022-12-03T02:35:17.200Z,102262.06
2022-12-03T02:35:48.960Z,102255.13
2022-12-03T02:36:20.806Z,102269.09
2022-12-03T02:36:52.249Z,102259.66
2022-12-03T02:37:33.700Z,102253.34
2022-12-03T02:38:15.443Z,102253.47
2022-12-03T02:38:48.031Z,102256.22
2022-12-03T02:39:19.627Z,102259.44
2022-12-03T02:39:54.943Z,102253.34
2022-12-03T02:40:29.332Z,102255.84
2022-12-03T02:41:04.659Z,102259.88
2022-12-03T02:41:54.681Z,102262.16
2022-12-03T02:42:35.434Z,102260.63
2022-12-03T02:43:06.962Z,102259.88
2022-12-03T02:43:38.545Z,102260.38
2022-12-03T02:44:10.304Z,102256.94
2022-12-03T02:44:41.784Z,102258.00
2022-12-03T02:45:26.361Z,102262.44
2022-12-03T02:46:00.320Z,102258.00
2022-12-03T02:46:32.017Z,102256.34
2022-12-03T02:47:03.765Z,102256.34
2022-12-03T02:47:38.723Z,102259.19
2022-12-03T02:48:14.321Z,102255.00
2022-12-03T02:48:45.771Z,102254.41
2022-12-03T02:49:17.221Z,102258.00
2022-12-03T02:49:49.347Z,102250.75
2022-12-03T02:50:24.873Z,102258.25
2022-12-03T02:50:59.770Z,102264.09
2022-12-03T02:51:31.416Z,102259.53
2022-12-03T02:52:03.463Z,102263.00
2022-12-03T02:52:35.118Z,102252.75
2022-12-03T02:53:19.485Z,102267.53
2022-12-03T02:53:52.185Z,102259.19
2022-12-03T02:54:23.904Z,102263.38
2022-12-03T02:54:55.813Z,102264.22
2022-12-03T02:55:33.505Z,102260.88
2022-12-03T02:56:09.073Z,102263.38
2022-12-03T02:56:40.644Z,102272.09
2022-12-03T02:57:12.145Z,102259.91
2022-12-03T02:57:46.005Z,102260.88
2022-12-03T02:58:18.027Z,102266.13
2022-12-03T02:58:51.939Z,102266.38
2022-12-03T02:59:23.603Z,102269.69
2022-12-03T02:59:55.142Z,102261.81
2022-12-03T03:00:26.797Z,102263.75
2022-12-03T03:00:59.068Z,102264.81
2022-12-03T03:01:31.115Z,102261.81
2022-12-03T03:02:02.718Z,102266.00
2022-12-03T03:02:34.746Z,102259.78
2022-12-03T03:03:06.810Z,102262.41
2022-12-03T03:03:38.556Z,102264.91
2022-12-03T03:04:10.133Z,102258.72
2022-12-03T03:04:42.039Z,102272.91
2022-12-03T03:05:14.071Z,102260.63
2022-12-03T03:05:45.558Z,102257.03
2022-12-03T03:06:18.352Z,102261.34
2022-12-03T03:06:49.808Z,102259.53
2022-12-03T03:07:21.478Z,102262.41
2022-12-03T03:07:53.085Z,102248.00
2022-12-03T03:08:25.476Z,102257.66
2022-12-03T03:08:57.298Z,102256.00
2022-12-03T03:09:28.764Z,102251.31
2022-12-03T03:10:01.071Z,102251.31
2022-12-03T03:10:33.275Z,102256.00
2022-12-03T03:11:05.034Z,102251.31
2022-12-03T03:11:36.506Z,102254.66
2022-12-03T03:12:08.230Z,102253.00
2022-12-03T03:12:40.055Z,102258.25
2022-12-03T03:13:19.073Z,102251.31
2022-12-03T03:13:50.568Z,102248.81
2022-12-03T03:14:22.067Z,102252.16
2022-12-03T03:14:53.861Z,102243.56
2022-12-03T03:15:25.584Z,102250.88
2022-12-03T03:15:57.265Z,102245.13
2022-12-03T03:16:28.888Z,102247.75
2022-12-03T03:17:00.483Z,102246.91
2022-12-03T03:17:32.217Z,102245.72
2022-12-03T03:18:04.718Z,102242.50
2022-12-03T03:18:36.625Z,102240.25
2022-12-03T03:19:08.600Z,102246.09
2022-12-03T03:19:40.097Z,102248.72
2022-12-03T03:20:12.354Z,102252.03
2022-12-03T03:20:44.209Z,102243.47
2022-12-03T03:21:15.693Z,102243.94
2022-12-03T03:21:47.263Z,102246.91
2022-12-03T03:22:18.789Z,102246.19
2022-12-03T03:22:50.285Z,102247.75
2022-12-03T03:23:23.349Z,102241.53
2022-12-03T03:23:54.801Z,102248.00
2022-12-03T03:24:26.668Z,102242.41
2022-12-03T03:24:58.123Z,102237.75
2022-12-03T03:25:29.617Z,102241.91
2022-12-03T03:26:03.812Z,102241.66
2022-12-03T03:26:35.514Z,102246.09
2022-12-03T03:27:07.173Z,102241.56
2022-12-03T03:27:40.287Z,102246.09
2022-12-03T03:28:12.119Z,102242.75
2022-12-03T03:28:46.982Z,102232.50
2022-12-03T03:29:19.072Z,102237.16
2022-12-03T03:29:50.994Z,102242.53
2022-12-03T03:30:22.469Z,102230.34
2022-12-03T03:30:54.193Z,102234.53
2022-12-03T03:31:25.743Z,102240.38
2022-12-03T03:31:58.205Z,102236.31
2022-12-03T03:32:30.481Z,102243.69
2022-12-03T03:33:02.001Z,102239.66
2022-12-03T03:33:33.887Z,102238.09
2022-12-03T03:34:05.380Z,102236.78
2022-12-03T03:34:36.850Z,102237.63
2022-12-03T03:35:09.891Z,102228.06
2022-12-03T03:35:42.241Z,102229.41
2022-12-03T03:36:14.376Z,102231.28
2022-12-03T03:36:46.142Z,102229.63
2022-12-03T03:37:17.588Z,102227.00
2022-12-03T03:37:49.107Z,102243.00
2022-12-03T03:38:21.131Z,102241.91
2022-12-03T03:38:52.937Z,102232.03
2022-12-03T03:39:24.712Z,102232.34
2022-12-03T03:39:56.188Z,102220.69
2022-12-03T03:40:28.172Z,102236.56
2022-12-03T03:41:02.198Z,102228.69
2022-12-03T03:41:34.377Z,102228.56
2022-12-03T03:42:05.860Z,102229.53
2022-12-03T03:42:37.931Z,102237.59
2022-12-03T03:43:09.606Z,102232.28
2022-12-03T03:43:42.508Z,102227.94
2022-12-03T03:44:14.253Z,102230.56
2022-12-03T03:44:48.009Z,102223.91
2022-12-03T03:45:24.004Z,102226.75
2022-12-03T03:45:59.039Z,102229.25
2022-12-03T03:46:33.163Z,102232.00
2022-12-03T03:47:04.836Z,102226.66
2022-12-03T03:47:36.957Z,102232.84
2022-12-03T03:48:08.503Z,102228.44
2022-12-03T03:48:41.617Z,102228.19
2022-12-03T03:49:13.244Z,102221.88
2022-12-03T03:49:44.793Z,102223.53
2022-12-03T03:50:16.432Z,102229.72
2022-12-03T03:50:48.225Z,102225.22
2022-12-03T03:51:20.069Z,102236.56
2022-12-03T03:51:51.617Z,102222.69
2022-12-03T03:52:23.221Z,102227.09
2022-12-03T03:52:55.396Z,102223.66
2022-12-03T03:53:26.978Z,102227.47
2022-12-03T03:53:58.617Z,102230.34
2022-12-03T03:54:30.610Z,102222.59
2022-12-03T03:55:02.185Z,102218.19
2022-12-03T03:55:34.076Z,102225.81
2022-12-03T03:56:06.168Z,102225.56
2022-12-03T03:56:37.671Z,102223.78
2022-12-03T03:57:09.163Z,102226.28
2022-12-03T03:57:40.734Z,102226.28
2022-12-03T03:58:12.357Z,102223.19
2022-12-03T03:58:43.882Z,102221.50
2022-12-03T03:59:15.777Z,102222.34
2022-12-03T03:59:47.240Z,102217.81
2022-12-03T04:00:19.096Z,102226.53
2022-12-03T04:00:51.746Z,102221.16
2022-12-03T04:01:23.881Z,102223.66
2022-12-03T04:01:55.454Z,102216.03
2022-12-03T04:02:27.429Z,102224.84
2022-12-03T04:02:58.895Z,102231.75
2022-12-03T04:03:30.371Z,102227.34
2022-12-03T04:04:02.006Z,102222.34
2022-12-03T04:04:35.576Z,102216.84
2022-12-03T04:05:08.033Z,102220.56
2022-12-03T04:05:39.939Z,102226.75
2022-12-03T04:06:11.472Z,102226.75
2022-12-03T04:06:42.951Z,102226.06
2022-12-03T04:07:15.706Z,102224.50
2022-12-03T04:07:47.439Z,102222.00
2022-12-03T04:08:19.479Z,102227.25
2022-12-03T04:08:51.068Z,102221.88
2022-12-03T04:09:22.513Z,102224.88
2022-12-03T04:09:54.006Z,102227.97
2022-12-03T04:10:43.789Z,102224.97
2022-12-03T04:11:33.978Z,102227.00
2022-12-03T04:12:24.065Z,102217.22
2022-12-03T04:12:55.570Z,102216.75
2022-12-03T04:13:27.104Z,102224.63
2022-12-03T04:13:58.541Z,102227.00
2022-12-03T04:14:30.002Z,102215.56
2022-12-03T04:15:01.697Z,102213.75
2022-12-03T04:15:33.203Z,102215.56
2022-12-03T04:16:04.936Z,102220.69
2022-12-03T04:16:36.477Z,102213.88
2022-12-03T04:17:08.085Z,102213.75
2022-12-03T04:17:39.550Z,102221.75
2022-12-03T04:18:29.777Z,102216.50
2022-12-03T04:19:01.241Z,102226.28
2022-12-03T04:19:32.689Z,102218.91
2022-12-03T04:20:04.948Z,102221.28
2022-12-03T04:20:37.526Z,102215.56
2022-12-03T04:21:35.736Z,102220.69
2022-12-03T04:22:25.734Z,102218.91
2022-12-03T04:22:57.219Z,102220.69
2022-12-03T04:23:31.039Z,102222.34
2022-12-03T04:24:03.462Z,102218.91
2022-12-03T04:24:34.958Z,102227.34
2022-12-03T04:25:27.105Z,102216.03
2022-12-03T04:26:17.178Z,102217.94
2022-12-03T04:27:07.140Z,102215.19
2022-12-03T04:27:57.174Z,102214.59
2022-12-03T04:28:47.926Z,102215.69
2022-12-03T04:29:20.132Z,102214.00
2022-12-03T04:29:51.614Z,102220.09
2022-12-03T04:30:23.204Z,102213.19
2022-12-03T04:30:54.778Z,102214.00
2022-12-03T04:31:52.281Z,102213.88
2022-12-03T04:32:42.045Z,102211.25
2022-12-03T04:33:32.030Z,102213.88
2022-12-03T04:34:21.957Z,102208.53
2022-12-03T04:35:12.001Z,102213.53
2022-12-03T04:35:43.584Z,102211.25
2022-12-03T04:36:15.054Z,102214.00
2022-12-03T04:36:47.133Z,102213.19
2022-12-03T04:37:18.778Z,102212.59
2022-12-03T04:37:50.292Z,102212.72
2022-12-03T04:38:21.763Z,102209.25
2022-12-03T04:39:11.829Z,102211.75
2022-12-03T04:39:43.311Z,102211.88
2022-12-03T04:40:33.462Z,102212.72
2022-12-03T04:41:05.062Z,102214.75
2022-12-03T04:41:36.609Z,102217.25
2022-12-03T04:42:08.295Z,102217.25
2022-12-03T04:42:39.827Z,102215.69
2022-12-03T04:43:11.280Z,102208.91
2022-12-03T04:44:01.326Z,102208.91
2022-12-03T04:44:33.448Z,102210.56
2022-12-03T04:45:05.254Z,102207.94
2022-12-03T04:45:36.783Z,102209.94
2022-12-03T04:46:08.358Z,102215.19
2022-12-03T04:46:39.877Z,102221.38
2022-12-03T04:47:16.560Z,102211.03
2022-12-03T04:47:48.034Z,102211.84
2022-12-03T04:48:19.504Z,102212.69
2022-12-03T04:48:51.002Z,102222.34
2022-12-03T04:49:22.716Z,102217.34
2022-12-03T04:49:54.410Z,102221.75
2022-12-03T04:50:25.887Z,102220.09
2022-12-03T04:50:57.422Z,102213.16
2022-12-03T04:51:28.938Z,102220.19
2022-12-03T04:52:00.430Z,102215.06
2022-12-03T04:52:31.870Z,102218.53
2022-12-03T04:53:03.740Z,102219.50
2022-12-03T04:53:36.300Z,102213.66
2022-12-03T04:54:07.966Z,102218.91
2022-12-03T04:54:40.354Z,102214.59
2022-12-03T04:55:11.881Z,102216.97
2022-12-03T04:55:43.413Z,102224.72
2022-12-03T04:56:14.837Z,102217.81
2022-12-03T04:56:46.585Z,102211.75
2022-12-03T04:57:18.031Z,102222.81
2022-12-03T04:57:49.479Z,102211.50
2022-12-03T04:58:20.929Z,102221.16
2022-12-03T04:58:52.523Z,102207.44
2022-12-03T04:59:24.158Z,102211.16
2022-12-03T04:59:55.601Z,102216.38
2022-12-03T05:00:28.340Z,102210.06
2022-12-03T05:00:59.905Z,102218.91
2022-12-03T05:01:31.455Z,102225.56
2022-12-03T05:02:04.243Z,102218.41
2022-12-03T05:02:37.396Z,102222.59
2022-12-03T05:03:09.114Z,102226.28
2022-12-03T05:03:40.597Z,102213.16
2022-12-03T05:04:13.247Z,102219.00
2022-12-03T05:04:44.763Z,102219.84
2022-12-03T05:05:16.337Z,102210.31
2022-12-03T05:05:47.860Z,102211.97
2022-12-03T05:06:19.345Z,102221.50
2022-12-03T05:06:50.908Z,102216.88
2022-12-03T05:07:22.357Z,102227.38
2022-12-03T05:07:53.917Z,102212.69
2022-12-03T05:08:25.540Z,102217.72
2022-12-03T05:08:57.051Z,102220.44
2022-12-03T05:09:29.050Z,102217.09
2022-12-03T05:10:00.526Z,102218.16
2022-12-03T05:10:32.028Z,102211.38
2022-12-03T05:11:03.498Z,102212.56
2022-12-03T05:11:35.117Z,102220.31
2022-12-03T05:12:06.706Z,102208.16
2022-12-03T05:12:38.233Z,102216.75
2022-12-03T05:13:09.741Z,102215.19
2022-12-03T05:13:43.019Z,102219.38
2022-12-03T05:14:14.864Z,102219.13
2022-12-03T05:14:46.340Z,102221.75
2022-12-03T05:15:17.979Z,102219.13
2022-12-03T05:15:49.901Z,102221.75
2022-12-03T05:16:21.519Z,102212.34
2022-12-03T05:16:53.080Z,102226.28
2022-12-03T05:17:24.619Z,102224.38
2022-12-03T05:17:56.095Z,102218.88
2022-12-03T05:18:27.545Z,102211.03
2022-12-03T05:19:00.131Z,102216.25
2022-12-03T05:19:50.184Z,102219.84
2022-12-03T05:20:39.996Z,102215.56
2022-12-03T05:21:11.515Z,102213.75
2022-12-03T05:21:42.987Z,102214.59
2022-12-03T05:22:14.438Z,102221.63
2022-12-03T05:22:46.828Z,102211.03
2022-12-03T05:23:18.410Z,102212.22
2022-12-03T05:23:50.979Z,102217.59
2022-12-03T05:24:22.418Z,102214.25
2022-12-03T05:24:54.201Z,102213.28
2022-12-03T05:25:25.794Z,102211.50
2022-12-03T05:25:57.337Z,102216.88
2022-12-03T05:26:28.865Z,102213.41
2022-12-03T05:27:00.340Z,102213.03
2022-12-03T05:27:31.775Z,102213.75
2022-12-03T05:28:04.052Z,102211.25
2022-12-03T05:28:35.617Z,102213.75
2022-12-03T05:29:07.099Z,102215.56
2022-12-03T05:29:38.633Z,102218.16
2022-12-03T05:30:10.610Z,102209.22
2022-12-03T05:30:42.208Z,102213.63
2022-12-03T05:31:13.819Z,102216.06
2022-12-03T05:31:45.388Z,102215.94
2022-12-03T05:32:16.868Z,102213.44
2022-12-03T05:32:48.391Z,102205.56
2022-12-03T05:33:20.572Z,102204.09
2022-12-03T05:33:52.185Z,102201.59
2022-12-03T05:34:23.717Z,102202.69
2022-12-03T05:34:55.571Z,102214.97
2022-12-03T05:35:27.609Z,102203.63
2022-12-03T05:35:59.126Z,102202.69
2022-12-03T05:36:30.632Z,102211.50
2022-12-03T05:37:02.233Z,102202.81
2022-12-03T05:37:33.682Z,102202.91
2022-12-03T05:38:05.187Z,102197.69
2022-12-03T05:38:36.654Z,102205.41
2022-12-03T05:39:08.094Z,102201.25
2022-12-03T05:39:39.553Z,102203.03
2022-12-03T05:40:12.179Z,102198.63
2022-12-03T05:40:43.650Z,102203.16
2022-12-03T05:41:34.062Z,102199.00
2022-12-03T05:42:24.154Z,102205.06
2022-12-03T05:42:56.994Z,102208.63
2022-12-03T05:43:28.534Z,102196.25
2022-12-03T05:44:00.009Z,102196.25
2022-12-03T05:44:31.772Z,102204.81
2022-12-03T05:45:03.767Z,102194.34
2022-12-03T05:45:42.581Z,102195.06
2022-12-03T05:46:14.109Z,102201.00
2022-12-03T05:46:45.671Z,102202.81
2022-12-03T05:47:17.212Z,102194.22
2022-12-03T05:47:48.756Z,102198.63
2022-12-03T05:48:20.280Z,102195.16
2022-12-03T05:48:51.724Z,102193.38
2022-12-03T05:49:23.174Z,102201.13
2022-12-03T05:49:54.616Z,102194.94
2022-12-03T05:50:28.923Z,102193.25
2022-12-03T05:51:00.380Z,102188.03
2022-12-03T05:51:31.831Z,102188.97
2022-12-03T05:52:03.389Z,102189.94
2022-12-03T05:52:34.892Z,102185.28
2022-12-03T05:53:06.405Z,102189.09
2022-12-03T05:53:37.986Z,102182.44
2022-12-03T05:54:09.526Z,102192.91
2022-12-03T05:54:40.996Z,102187.66
2022-12-03T05:55:12.533Z,102180.75
2022-12-03T05:55:44.004Z,102181.00
2022-12-03T05:56:15.449Z,102178.25
2022-12-03T05:56:46.890Z,102186.00
2022-12-03T05:57:18.548Z,102183.25
2022-12-03T05:57:50.298Z,102184.09
2022-12-03T05:58:21.754Z,102192.66
2022-12-03T05:58:53.293Z,102186.47
2022-12-03T05:59:26.061Z,102187.44
2022-12-03T05:59:57.640Z,102186.00
2022-12-03T06:00:31.405Z,102181.72
2022-12-03T06:01:03.033Z,102188.75
2022-12-03T06:01:34.519Z,102188.97
2022-12-03T06:02:06.019Z,102193.63
2022-12-03T06:02:37.610Z,102189.94
2022-12-03T06:03:09.318Z,102187.91
2022-12-03T06:03:40.992Z,102182.44
2022-12-03T06:04:12.538Z,102191.47
2022-12-03T06:04:44.719Z,102193.38
2022-12-03T06:05:19.413Z,102187.06
2022-12-03T06:05:50.981Z,102188.84
2022-12-03T06:06:22.405Z,102186.13
2022-12-03T06:06:54.502Z,102192.31
2022-12-03T06:07:26.362Z,102196.97
2022-12-03T06:07:57.906Z,102187.19
2022-12-03T06:08:29.552Z,102199.34
2022-12-03T06:09:01.065Z,102184.34
2022-12-03T06:09:32.528Z,102190.16
2022-12-03T06:10:05.465Z,102193.03
2022-12-03T06:10:37.544Z,102183.38
2022-12-03T06:11:09.015Z,102192.91
2022-12-03T06:11:41.295Z,102189.34
2022-12-03T06:12:12.749Z,102187.53
2022-12-03T06:12:44.348Z,102183.97
2022-12-03T06:13:16.252Z,102186.47
2022-12-03T06:13:47.693Z,102191.84
2022-12-03T06:14:19.128Z,102185.53
2022-12-03T06:14:50.810Z,102185.41
2022-12-03T06:15:22.659Z,102186.22
2022-12-03T06:15:54.147Z,102186.22
2022-12-03T06:16:25.703Z,102187.19
2022-12-03T06:16:57.182Z,102182.19
2022-12-03T06:17:28.669Z,102180.50
2022-12-03T06:18:00.117Z,102183.03
2022-12-03T06:18:31.558Z,102191.59
2022-12-03T06:19:03.029Z,102187.19